sensor_id;sensor_type;location;lat;lon;timestamp;P1;durP1;ratioP1;P2;durP2;ratioP2
20348;SDS011;10332;50.208;18.988;2023-01-29T00:00:05;22.97;;;12.03;;
20348;SDS011;10332;50.208;18.988;2023-01-29T00:02:56;28.33;;;14.10;;
20348;SDS011;10332;50.208;18.988;2023-01-29T00:05:23;23.03;;;12.33;;
20348;SDS011;10332;50.208;18.988;2023-01-29T00:07:54;26.27;;;13.37;;
20348;SDS011;10332;50.208;18.988;2023-01-29T00:10:23;24.73;;;13.83;;
20348;SDS011;10332;50.208;18.988;2023-01-29T00:12:51;25.73;;;14.23;;
20348;SDS011;10332;50.208;18.988;2023-01-29T00:15:19;24.60;;;14.03;;
20348;SDS011;10332;50.208;18.988;2023-01-29T00:17:47;23.87;;;13.17;;
20348;SDS011;10332;50.208;18.988;2023-01-29T00:20:15;23.83;;;13.30;;
20348;SDS011;10332;50.208;18.988;2023-01-29T00:22:43;22.83;;;12.60;;
20348;SDS011;10332;50.208;18.988;2023-01-29T00:25:11;28.37;;;14.53;;
20348;SDS011;10332;50.208;18.988;2023-01-29T00:27:38;21.70;;;13.33;;
20348;SDS011;10332;50.208;18.988;2023-01-29T00:30:06;22.97;;;12.97;;
20348;SDS011;10332;50.208;18.988;2023-01-29T00:32:34;27.20;;;15.47;;
20348;SDS011;10332;50.208;18.988;2023-01-29T00:35:02;28.97;;;15.63;;
20348;SDS011;10332;50.208;18.988;2023-01-29T00:37:30;24.77;;;14.27;;
20348;SDS011;10332;50.208;18.988;2023-01-29T00:39:57;25.73;;;14.67;;
20348;SDS011;10332;50.208;18.988;2023-01-29T00:42:25;28.50;;;15.27;;
20348;SDS011;10332;50.208;18.988;2023-01-29T00:45:11;21.73;;;12.07;;
20348;SDS011;10332;50.208;18.988;2023-01-29T00:47:39;20.27;;;11.47;;
20348;SDS011;10332;50.208;18.988;2023-01-29T00:50:09;21.13;;;12.13;;
20348;SDS011;10332;50.208;18.988;2023-01-29T00:52:38;21.53;;;11.43;;
20348;SDS011;10332;50.208;18.988;2023-01-29T00:55:09;20.67;;;11.70;;
20348;SDS011;10332;50.208;18.988;2023-01-29T00:57:37;18.67;;;11.03;;
20348;SDS011;10332;50.208;18.988;2023-01-29T01:00:06;19.17;;;11.47;;
20348;SDS011;10332;50.208;18.988;2023-01-29T01:02:38;20.47;;;11.57;;
20348;SDS011;10332;50.208;18.988;2023-01-29T01:05:25;19.17;;;10.53;;
20348;SDS011;10332;50.208;18.988;2023-01-29T01:07:53;19.70;;;10.67;;
20348;SDS011;10332;50.208;18.988;2023-01-29T01:13:00;19.13;;;11.07;;
20348;SDS011;10332;50.208;18.988;2023-01-29T01:15:36;18.60;;;11.07;;
20348;SDS011;10332;50.208;18.988;2023-01-29T01:18:05;22.93;;;11.80;;
20348;SDS011;10332;50.208;18.988;2023-01-29T01:20:34;22.23;;;12.50;;
20348;SDS011;10332;50.208;18.988;2023-01-29T01:23:02;24.53;;;12.33;;
20348;SDS011;10332;50.208;18.988;2023-01-29T01:25:30;21.67;;;12.03;;
20348;SDS011;10332;50.208;18.988;2023-01-29T01:27:58;20.80;;;10.63;;
20348;SDS011;10332;50.208;18.988;2023-01-29T01:30:28;15.40;;;9.13;;
20348;SDS011;10332;50.208;18.988;2023-01-29T01:32:56;16.70;;;9.67;;
20348;SDS011;10332;50.208;18.988;2023-01-29T01:35:23;17.57;;;9.40;;
20348;SDS011;10332;50.208;18.988;2023-01-29T01:37:51;17.40;;;9.07;;
20348;SDS011;10332;50.208;18.988;2023-01-29T01:40:19;22.60;;;9.80;;
20348;SDS011;10332;50.208;18.988;2023-01-29T01:42:49;24.50;;;10.67;;
20348;SDS011;10332;50.208;18.988;2023-01-29T01:45:33;18.00;;;9.23;;
20348;SDS011;10332;50.208;18.988;2023-01-29T01:50:55;13.83;;;7.57;;
20348;SDS011;10332;50.208;18.988;2023-01-29T01:53:30;13.70;;;8.47;;
20348;SDS011;10332;50.208;18.988;2023-01-29T01:56:14;11.23;;;7.00;;
20348;SDS011;10332;50.208;18.988;2023-01-29T01:58:53;9.20;;;6.00;;
20348;SDS011;10332;50.208;18.988;2023-01-29T02:01:24;9.53;;;6.07;;
20348;SDS011;10332;50.208;18.988;2023-01-29T02:07:00;9.57;;;5.43;;
20348;SDS011;10332;50.208;18.988;2023-01-29T02:09:53;7.63;;;5.17;;
20348;SDS011;10332;50.208;18.988;2023-01-29T02:12:42;7.33;;;4.87;;
20348;SDS011;10332;50.208;18.988;2023-01-29T02:15:12;6.67;;;4.77;;
20348;SDS011;10332;50.208;18.988;2023-01-29T02:17:39;7.80;;;5.37;;
20348;SDS011;10332;50.208;18.988;2023-01-29T02:20:11;7.50;;;5.10;;
20348;SDS011;10332;50.208;18.988;2023-01-29T02:22:54;9.67;;;6.07;;
20348;SDS011;10332;50.208;18.988;2023-01-29T02:32:03;10.57;;;7.13;;
20348;SDS011;10332;50.208;18.988;2023-01-29T02:41:30;10.93;;;6.30;;
20348;SDS011;10332;50.208;18.988;2023-01-29T02:43:54;11.63;;;6.43;;
20348;SDS011;10332;50.208;18.988;2023-01-29T02:47:27;12.07;;;7.67;;
20348;SDS011;10332;50.208;18.988;2023-01-29T02:49:55;11.07;;;6.57;;
20348;SDS011;10332;50.208;18.988;2023-01-29T02:52:44;10.87;;;6.17;;
20348;SDS011;10332;50.208;18.988;2023-01-29T02:55:37;9.23;;;5.53;;
20348;SDS011;10332;50.208;18.988;2023-01-29T02:58:13;10.77;;;6.40;;
20348;SDS011;10332;50.208;18.988;2023-01-29T03:01:31;9.43;;;5.47;;
20348;SDS011;10332;50.208;18.988;2023-01-29T03:04:13;7.97;;;5.00;;
20348;SDS011;10332;50.208;18.988;2023-01-29T03:06:57;6.83;;;4.90;;
20348;SDS011;10332;50.208;18.988;2023-01-29T03:09:37;7.83;;;4.60;;
20348;SDS011;10332;50.208;18.988;2023-01-29T03:12:16;6.83;;;4.40;;
20348;SDS011;10332;50.208;18.988;2023-01-29T03:15:01;7.20;;;4.77;;
20348;SDS011;10332;50.208;18.988;2023-01-29T03:18:10;10.03;;;5.53;;
20348;SDS011;10332;50.208;18.988;2023-01-29T03:20:48;9.00;;;5.77;;
20348;SDS011;10332;50.208;18.988;2023-01-29T03:23:24;9.60;;;6.33;;
20348;SDS011;10332;50.208;18.988;2023-01-29T03:26:16;9.90;;;5.83;;
20348;SDS011;10332;50.208;18.988;2023-01-29T03:29:06;8.23;;;5.30;;
20348;SDS011;10332;50.208;18.988;2023-01-29T03:31:56;9.10;;;6.00;;
20348;SDS011;10332;50.208;18.988;2023-01-29T03:34:37;7.57;;;5.40;;
20348;SDS011;10332;50.208;18.988;2023-01-29T03:37:15;9.23;;;6.47;;
20348;SDS011;10332;50.208;18.988;2023-01-29T03:39:51;7.03;;;4.97;;
20348;SDS011;10332;50.208;18.988;2023-01-29T03:42:37;8.87;;;5.93;;
20348;SDS011;10332;50.208;18.988;2023-01-29T03:49:06;9.13;;;5.77;;
20348;SDS011;10332;50.208;18.988;2023-01-29T03:54:18;9.13;;;6.07;;
20348;SDS011;10332;50.208;18.988;2023-01-29T03:56:59;8.60;;;6.00;;
20348;SDS011;10332;50.208;18.988;2023-01-29T03:59:38;8.50;;;5.87;;
20348;SDS011;10332;50.208;18.988;2023-01-29T04:02:21;10.50;;;6.10;;
20348;SDS011;10332;50.208;18.988;2023-01-29T04:05:02;9.47;;;6.00;;
20348;SDS011;10332;50.208;18.988;2023-01-29T04:07:39;10.30;;;6.53;;
20348;SDS011;10332;50.208;18.988;2023-01-29T04:10:12;9.93;;;6.57;;
20348;SDS011;10332;50.208;18.988;2023-01-29T04:12:51;8.07;;;5.70;;
20348;SDS011;10332;50.208;18.988;2023-01-29T04:15:27;8.43;;;5.23;;
20348;SDS011;10332;50.208;18.988;2023-01-29T04:18:00;6.90;;;5.03;;
20348;SDS011;10332;50.208;18.988;2023-01-29T04:20:29;7.10;;;5.00;;
20348;SDS011;10332;50.208;18.988;2023-01-29T04:22:56;8.13;;;5.00;;
20348;SDS011;10332;50.208;18.988;2023-01-29T04:25:25;7.57;;;4.90;;
20348;SDS011;10332;50.208;18.988;2023-01-29T04:31:23;10.03;;;5.77;;
20348;SDS011;10332;50.208;18.988;2023-01-29T04:34:46;8.40;;;5.70;;
20348;SDS011;10332;50.208;18.988;2023-01-29T04:37:03;8.50;;;5.97;;
20348;SDS011;10332;50.208;18.988;2023-01-29T04:39:57;7.53;;;5.37;;
20348;SDS011;10332;50.208;18.988;2023-01-29T04:45:32;8.20;;;5.83;;
20348;SDS011;10332;50.208;18.988;2023-01-29T04:48:18;8.97;;;5.77;;
20348;SDS011;10332;50.208;18.988;2023-01-29T04:59:41;10.50;;;6.30;;
20348;SDS011;10332;50.208;18.988;2023-01-29T05:02:17;8.80;;;5.93;;
20348;SDS011;10332;50.208;18.988;2023-01-29T05:04:48;9.80;;;6.97;;
20348;SDS011;10332;50.208;18.988;2023-01-29T05:07:19;9.83;;;6.80;;
20348;SDS011;10332;50.208;18.988;2023-01-29T05:09:51;12.30;;;6.70;;
20348;SDS011;10332;50.208;18.988;2023-01-29T05:12:20;11.13;;;6.53;;
20348;SDS011;10332;50.208;18.988;2023-01-29T05:14:53;9.40;;;5.83;;
20348;SDS011;10332;50.208;18.988;2023-01-29T05:17:27;8.90;;;6.27;;
20348;SDS011;10332;50.208;18.988;2023-01-29T05:19:55;10.10;;;6.77;;
20348;SDS011;10332;50.208;18.988;2023-01-29T05:22:23;10.23;;;6.87;;
20348;SDS011;10332;50.208;18.988;2023-01-29T05:24:52;9.47;;;6.00;;
20348;SDS011;10332;50.208;18.988;2023-01-29T05:27:30;13.83;;;7.57;;
20348;SDS011;10332;50.208;18.988;2023-01-29T05:30:20;11.60;;;7.13;;
20348;SDS011;10332;50.208;18.988;2023-01-29T05:32:48;12.73;;;7.63;;
20348;SDS011;10332;50.208;18.988;2023-01-29T05:35:15;17.83;;;9.00;;
20348;SDS011;10332;50.208;18.988;2023-01-29T05:37:43;16.57;;;8.03;;
20348;SDS011;10332;50.208;18.988;2023-01-29T05:40:11;16.77;;;9.03;;
20348;SDS011;10332;50.208;18.988;2023-01-29T05:42:39;18.90;;;9.90;;
20348;SDS011;10332;50.208;18.988;2023-01-29T05:45:07;16.30;;;9.60;;
20348;SDS011;10332;50.208;18.988;2023-01-29T05:47:35;15.83;;;9.37;;
20348;SDS011;10332;50.208;18.988;2023-01-29T05:50:02;14.83;;;8.30;;
20348;SDS011;10332;50.208;18.988;2023-01-29T05:52:31;17.00;;;9.03;;
20348;SDS011;10332;50.208;18.988;2023-01-29T05:54:59;13.70;;;7.93;;
20348;SDS011;10332;50.208;18.988;2023-01-29T05:57:26;11.77;;;6.87;;
20348;SDS011;10332;50.208;18.988;2023-01-29T05:59:53;10.20;;;6.37;;
20348;SDS011;10332;50.208;18.988;2023-01-29T06:02:21;8.93;;;5.67;;
20348;SDS011;10332;50.208;18.988;2023-01-29T06:04:49;13.17;;;6.77;;
20348;SDS011;10332;50.208;18.988;2023-01-29T06:07:18;9.50;;;6.70;;
20348;SDS011;10332;50.208;18.988;2023-01-29T06:09:45;11.70;;;7.00;;
20348;SDS011;10332;50.208;18.988;2023-01-29T06:12:13;12.20;;;7.03;;
20348;SDS011;10332;50.208;18.988;2023-01-29T06:14:40;14.43;;;7.73;;
20348;SDS011;10332;50.208;18.988;2023-01-29T06:17:07;12.80;;;7.40;;
20348;SDS011;10332;50.208;18.988;2023-01-29T06:19:35;23.43;;;13.87;;
20348;SDS011;10332;50.208;18.988;2023-01-29T06:22:02;20.93;;;12.30;;
20348;SDS011;10332;50.208;18.988;2023-01-29T06:24:30;39.00;;;21.30;;
20348;SDS011;10332;50.208;18.988;2023-01-29T06:26:58;32.20;;;19.20;;
20348;SDS011;10332;50.208;18.988;2023-01-29T06:29:25;16.20;;;10.47;;
20348;SDS011;10332;50.208;18.988;2023-01-29T06:31:53;16.90;;;9.83;;
20348;SDS011;10332;50.208;18.988;2023-01-29T06:34:20;15.67;;;9.40;;
20348;SDS011;10332;50.208;18.988;2023-01-29T06:36:48;14.43;;;9.90;;
20348;SDS011;10332;50.208;18.988;2023-01-29T06:39:15;14.30;;;7.60;;
20348;SDS011;10332;50.208;18.988;2023-01-29T06:41:43;12.10;;;8.00;;
20348;SDS011;10332;50.208;18.988;2023-01-29T06:44:12;11.93;;;7.67;;
20348;SDS011;10332;50.208;18.988;2023-01-29T06:46:39;11.60;;;7.80;;
20348;SDS011;10332;50.208;18.988;2023-01-29T06:49:07;13.07;;;8.50;;
20348;SDS011;10332;50.208;18.988;2023-01-29T06:51:34;15.50;;;8.07;;
20348;SDS011;10332;50.208;18.988;2023-01-29T06:54:02;12.93;;;6.93;;
20348;SDS011;10332;50.208;18.988;2023-01-29T06:56:29;13.10;;;7.40;;
20348;SDS011;10332;50.208;18.988;2023-01-29T06:58:57;12.17;;;6.87;;
20348;SDS011;10332;50.208;18.988;2023-01-29T07:01:24;9.60;;;6.57;;
20348;SDS011;10332;50.208;18.988;2023-01-29T07:04:01;13.20;;;6.77;;
20348;SDS011;10332;50.208;18.988;2023-01-29T07:06:29;11.37;;;6.87;;
20348;SDS011;10332;50.208;18.988;2023-01-29T07:08:57;11.93;;;6.77;;
20348;SDS011;10332;50.208;18.988;2023-01-29T07:11:25;11.67;;;6.87;;
20348;SDS011;10332;50.208;18.988;2023-01-29T07:13:52;11.43;;;6.97;;
20348;SDS011;10332;50.208;18.988;2023-01-29T07:16:19;16.50;;;8.60;;
20348;SDS011;10332;50.208;18.988;2023-01-29T07:18:47;13.30;;;7.93;;
20348;SDS011;10332;50.208;18.988;2023-01-29T07:21:15;11.80;;;7.80;;
20348;SDS011;10332;50.208;18.988;2023-01-29T07:23:42;14.93;;;8.80;;
20348;SDS011;10332;50.208;18.988;2023-01-29T07:26:10;13.63;;;8.50;;
20348;SDS011;10332;50.208;18.988;2023-01-29T07:28:38;17.87;;;10.63;;
20348;SDS011;10332;50.208;18.988;2023-01-29T07:31:07;16.77;;;10.80;;
20348;SDS011;10332;50.208;18.988;2023-01-29T07:33:38;16.53;;;10.50;;
20348;SDS011;10332;50.208;18.988;2023-01-29T07:36:09;14.97;;;10.47;;
20348;SDS011;10332;50.208;18.988;2023-01-29T07:38:38;14.33;;;9.30;;
20348;SDS011;10332;50.208;18.988;2023-01-29T07:41:05;10.30;;;6.17;;
20348;SDS011;10332;50.208;18.988;2023-01-29T07:43:33;13.07;;;7.10;;
20348;SDS011;10332;50.208;18.988;2023-01-29T07:46:01;14.83;;;8.83;;
20348;SDS011;10332;50.208;18.988;2023-01-29T07:48:30;15.50;;;7.87;;
20348;SDS011;10332;50.208;18.988;2023-01-29T07:50:58;13.17;;;7.93;;
20348;SDS011;10332;50.208;18.988;2023-01-29T07:53:26;13.00;;;8.00;;
20348;SDS011;10332;50.208;18.988;2023-01-29T07:55:54;9.60;;;6.20;;
20348;SDS011;10332;50.208;18.988;2023-01-29T07:58:22;9.40;;;5.70;;
20348;SDS011;10332;50.208;18.988;2023-01-29T08:00:49;8.63;;;6.07;;
20348;SDS011;10332;50.208;18.988;2023-01-29T08:03:17;11.10;;;7.07;;
20348;SDS011;10332;50.208;18.988;2023-01-29T08:05:46;11.80;;;7.57;;
20348;SDS011;10332;50.208;18.988;2023-01-29T08:08:14;13.70;;;8.27;;
20348;SDS011;10332;50.208;18.988;2023-01-29T08:10:42;14.13;;;8.97;;
20348;SDS011;10332;50.208;18.988;2023-01-29T08:13:09;19.57;;;11.83;;
20348;SDS011;10332;50.208;18.988;2023-01-29T08:15:37;17.80;;;10.70;;
20348;SDS011;10332;50.208;18.988;2023-01-29T08:18:05;22.27;;;14.17;;
20348;SDS011;10332;50.208;18.988;2023-01-29T08:20:32;25.20;;;14.53;;
20348;SDS011;10332;50.208;18.988;2023-01-29T08:23:07;24.90;;;14.87;;
20348;SDS011;10332;50.208;18.988;2023-01-29T08:25:40;23.87;;;14.70;;
20348;SDS011;10332;50.208;18.988;2023-01-29T08:28:08;38.27;;;19.90;;
20348;SDS011;10332;50.208;18.988;2023-01-29T08:30:37;23.00;;;13.87;;
20348;SDS011;10332;50.208;18.988;2023-01-29T08:33:05;19.67;;;12.17;;
20348;SDS011;10332;50.208;18.988;2023-01-29T08:35:32;17.47;;;11.57;;
20348;SDS011;10332;50.208;18.988;2023-01-29T08:38:00;20.70;;;13.20;;
20348;SDS011;10332;50.208;18.988;2023-01-29T08:40:31;20.40;;;12.10;;
20348;SDS011;10332;50.208;18.988;2023-01-29T08:43:01;23.57;;;14.60;;
20348;SDS011;10332;50.208;18.988;2023-01-29T08:45:36;24.13;;;14.43;;
20348;SDS011;10332;50.208;18.988;2023-01-29T08:48:09;23.97;;;15.40;;
20348;SDS011;10332;50.208;18.988;2023-01-29T08:50:37;27.27;;;16.07;;
20348;SDS011;10332;50.208;18.988;2023-01-29T08:53:05;29.23;;;18.67;;
20348;SDS011;10332;50.208;18.988;2023-01-29T08:55:35;25.63;;;17.53;;
20348;SDS011;10332;50.208;18.988;2023-01-29T08:58:06;32.30;;;19.10;;
20348;SDS011;10332;50.208;18.988;2023-01-29T09:00:35;28.07;;;17.47;;
20348;SDS011;10332;50.208;18.988;2023-01-29T09:03:04;31.27;;;17.07;;
20348;SDS011;10332;50.208;18.988;2023-01-29T09:05:33;34.03;;;18.90;;
20348;SDS011;10332;50.208;18.988;2023-01-29T09:08:03;22.70;;;15.07;;
20348;SDS011;10332;50.208;18.988;2023-01-29T09:10:31;24.87;;;15.43;;
20348;SDS011;10332;50.208;18.988;2023-01-29T09:13:00;22.10;;;14.70;;
20348;SDS011;10332;50.208;18.988;2023-01-29T09:15:27;22.10;;;13.80;;
20348;SDS011;10332;50.208;18.988;2023-01-29T09:17:55;23.30;;;14.73;;
20348;SDS011;10332;50.208;18.988;2023-01-29T09:20:23;28.40;;;16.07;;
20348;SDS011;10332;50.208;18.988;2023-01-29T09:22:50;23.50;;;15.00;;
20348;SDS011;10332;50.208;18.988;2023-01-29T09:25:19;25.40;;;15.33;;
20348;SDS011;10332;50.208;18.988;2023-01-29T09:27:46;23.10;;;14.30;;
20348;SDS011;10332;50.208;18.988;2023-01-29T09:30:14;27.67;;;16.43;;
20348;SDS011;10332;50.208;18.988;2023-01-29T09:32:42;28.03;;;16.73;;
20348;SDS011;10332;50.208;18.988;2023-01-29T09:35:22;32.73;;;18.83;;
20348;SDS011;10332;50.208;18.988;2023-01-29T09:37:50;26.83;;;15.77;;
20348;SDS011;10332;50.208;18.988;2023-01-29T09:43:09;19.17;;;11.93;;
20348;SDS011;10332;50.208;18.988;2023-01-29T09:45:49;20.13;;;11.73;;
20348;SDS011;10332;50.208;18.988;2023-01-29T09:48:27;17.77;;;11.30;;
20348;SDS011;10332;50.208;18.988;2023-01-29T09:51:02;18.17;;;11.60;;
20348;SDS011;10332;50.208;18.988;2023-01-29T09:53:53;18.23;;;11.40;;
20348;SDS011;10332;50.208;18.988;2023-01-29T09:56:44;22.40;;;11.10;;
20348;SDS011;10332;50.208;18.988;2023-01-29T09:59:14;23.50;;;11.53;;
20348;SDS011;10332;50.208;18.988;2023-01-29T10:01:58;21.90;;;11.23;;
20348;SDS011;10332;50.208;18.988;2023-01-29T10:24:57;12.80;;;8.07;;
20348;SDS011;10332;50.208;18.988;2023-01-29T10:27:31;13.43;;;8.23;;
20348;SDS011;10332;50.208;18.988;2023-01-29T10:30:08;14.40;;;8.67;;
20348;SDS011;10332;50.208;18.988;2023-01-29T10:33:05;15.17;;;9.70;;
20348;SDS011;10332;50.208;18.988;2023-01-29T10:35:45;19.93;;;11.87;;
20348;SDS011;10332;50.208;18.988;2023-01-29T10:59:30;12.57;;;7.97;;
20348;SDS011;10332;50.208;18.988;2023-01-29T11:02:13;14.00;;;7.73;;
20348;SDS011;10332;50.208;18.988;2023-01-29T11:04:44;15.63;;;9.83;;
20348;SDS011;10332;50.208;18.988;2023-01-29T11:07:12;19.67;;;11.33;;
20348;SDS011;10332;50.208;18.988;2023-01-29T11:09:48;16.70;;;11.67;;
20348;SDS011;10332;50.208;18.988;2023-01-29T11:12:30;15.87;;;11.13;;
20348;SDS011;10332;50.208;18.988;2023-01-29T11:15:02;20.37;;;13.60;;
20348;SDS011;10332;50.208;18.988;2023-01-29T11:17:31;23.57;;;14.87;;
20348;SDS011;10332;50.208;18.988;2023-01-29T11:19:59;21.63;;;14.10;;
20348;SDS011;10332;50.208;18.988;2023-01-29T11:22:27;24.50;;;15.30;;
20348;SDS011;10332;50.208;18.988;2023-01-29T11:27:59;22.70;;;15.33;;
20348;SDS011;10332;50.208;18.988;2023-01-29T11:30:32;24.90;;;15.63;;
20348;SDS011;10332;50.208;18.988;2023-01-29T11:33:06;24.67;;;16.23;;
20348;SDS011;10332;50.208;18.988;2023-01-29T11:35:46;21.37;;;15.60;;
20348;SDS011;10332;50.208;18.988;2023-01-29T11:38:18;21.27;;;14.80;;
20348;SDS011;10332;50.208;18.988;2023-01-29T11:40:51;21.53;;;13.80;;
20348;SDS011;10332;50.208;18.988;2023-01-29T11:45:53;18.87;;;11.13;;
20348;SDS011;10332;50.208;18.988;2023-01-29T11:48:38;21.23;;;11.37;;
20348;SDS011;10332;50.208;18.988;2023-01-29T11:51:09;19.90;;;12.10;;
20348;SDS011;10332;50.208;18.988;2023-01-29T11:53:55;18.63;;;10.53;;
20348;SDS011;10332;50.208;18.988;2023-01-29T11:56:40;20.10;;;11.73;;
20348;SDS011;10332;50.208;18.988;2023-01-29T12:05:00;16.57;;;10.27;;
20348;SDS011;10332;50.208;18.988;2023-01-29T12:07:43;19.30;;;10.10;;
20348;SDS011;10332;50.208;18.988;2023-01-29T12:10:29;17.97;;;10.13;;
20348;SDS011;10332;50.208;18.988;2023-01-29T12:15:36;33.87;;;17.10;;
20348;SDS011;10332;50.208;18.988;2023-01-29T12:21:03;17.30;;;10.00;;
20348;SDS011;10332;50.208;18.988;2023-01-29T12:23:51;18.20;;;9.33;;
20348;SDS011;10332;50.208;18.988;2023-01-29T12:26:35;15.63;;;9.70;;
20348;SDS011;10332;50.208;18.988;2023-01-29T12:35:00;16.30;;;8.75;;
20348;SDS011;10332;50.208;18.988;2023-01-29T12:40:24;12.25;;;7.60;;
20348;SDS011;10332;50.208;18.988;2023-01-29T12:43:07;15.15;;;8.68;;
20348;SDS011;10332;50.208;18.988;2023-01-29T12:45:49;14.02;;;8.80;;
20348;SDS011;10332;50.208;18.988;2023-01-29T12:48:23;17.48;;;9.73;;
20348;SDS011;10332;50.208;18.988;2023-01-29T12:51:09;11.18;;;7.22;;
20348;SDS011;10332;50.208;18.988;2023-01-29T12:54:18;12.57;;;7.15;;
20348;SDS011;10332;50.208;18.988;2023-01-29T12:56:45;12.55;;;7.28;;
20348;SDS011;10332;50.208;18.988;2023-01-29T12:59:35;12.48;;;7.43;;
20348;SDS011;10332;50.208;18.988;2023-01-29T13:05:45;11.52;;;7.03;;
20348;SDS011;10332;50.208;18.988;2023-01-29T13:08:18;11.30;;;7.30;;
20348;SDS011;10332;50.208;18.988;2023-01-29T13:10:53;13.70;;;7.85;;
20348;SDS011;10332;50.208;18.988;2023-01-29T13:13:34;13.00;;;7.65;;
20348;SDS011;10332;50.208;18.988;2023-01-29T13:16:11;12.60;;;8.55;;
20348;SDS011;10332;50.208;18.988;2023-01-29T13:18:54;13.48;;;8.27;;
20348;SDS011;10332;50.208;18.988;2023-01-29T13:21:29;16.05;;;8.90;;
20348;SDS011;10332;50.208;18.988;2023-01-29T13:24:09;15.65;;;8.23;;
20348;SDS011;10332;50.208;18.988;2023-01-29T13:26:49;22.23;;;12.45;;
20348;SDS011;10332;50.208;18.988;2023-01-29T13:29:21;16.42;;;8.65;;
20348;SDS011;10332;50.208;18.988;2023-01-29T13:31:56;15.35;;;7.88;;
20348;SDS011;10332;50.208;18.988;2023-01-29T13:34:29;13.60;;;7.38;;
20348;SDS011;10332;50.208;18.988;2023-01-29T13:37:10;17.65;;;10.30;;
20348;SDS011;10332;50.208;18.988;2023-01-29T13:39:53;16.08;;;8.50;;
20348;SDS011;10332;50.208;18.988;2023-01-29T13:42:38;12.23;;;6.93;;
20348;SDS011;10332;50.208;18.988;2023-01-29T13:45:20;13.35;;;7.72;;
20348;SDS011;10332;50.208;18.988;2023-01-29T13:51:02;13.63;;;8.25;;
20348;SDS011;10332;50.208;18.988;2023-01-29T13:56:44;13.93;;;8.48;;
20348;SDS011;10332;50.208;18.988;2023-01-29T14:02:18;17.08;;;9.35;;
20348;SDS011;10332;50.208;18.988;2023-01-29T14:04:50;16.85;;;10.00;;
20348;SDS011;10332;50.208;18.988;2023-01-29T14:08:00;18.13;;;10.20;;
20348;SDS011;10332;50.208;18.988;2023-01-29T14:10:32;21.50;;;11.50;;
20348;SDS011;10332;50.208;18.988;2023-01-29T14:15:31;18.05;;;10.55;;
20348;SDS011;10332;50.208;18.988;2023-01-29T14:20:39;15.50;;;9.20;;
20348;SDS011;10332;50.208;18.988;2023-01-29T14:23:23;16.60;;;9.60;;
20348;SDS011;10332;50.208;18.988;2023-01-29T14:26:23;19.52;;;10.02;;
20348;SDS011;10332;50.208;18.988;2023-01-29T14:29:27;14.75;;;9.55;;
20348;SDS011;10332;50.208;18.988;2023-01-29T14:32:10;18.35;;;10.95;;
20348;SDS011;10332;50.208;18.988;2023-01-29T14:34:47;16.88;;;10.43;;
20348;SDS011;10332;50.208;18.988;2023-01-29T14:37:29;15.93;;;9.70;;
20348;SDS011;10332;50.208;18.988;2023-01-29T14:40:19;19.30;;;10.27;;
20348;SDS011;10332;50.208;18.988;2023-01-29T14:43:03;15.87;;;9.43;;
20348;SDS011;10332;50.208;18.988;2023-01-29T14:45:37;19.02;;;11.23;;
20348;SDS011;10332;50.208;18.988;2023-01-29T14:50:39;21.17;;;12.40;;
20348;SDS011;10332;50.208;18.988;2023-01-29T14:56:35;28.15;;;13.55;;
20348;SDS011;10332;50.208;18.988;2023-01-29T15:01:57;21.10;;;12.70;;
20348;SDS011;10332;50.208;18.988;2023-01-29T15:04:40;26.23;;;13.97;;
20348;SDS011;10332;50.208;18.988;2023-01-29T15:07:17;21.33;;;12.37;;
20348;SDS011;10332;50.208;18.988;2023-01-29T15:16:17;28.27;;;13.53;;
20348;SDS011;10332;50.208;18.988;2023-01-29T15:18:56;22.73;;;12.37;;
20348;SDS011;10332;50.208;18.988;2023-01-29T15:24:37;44.60;;;19.27;;
20348;SDS011;10332;50.208;18.988;2023-01-29T15:27:25;35.00;;;16.80;;
20348;SDS011;10332;50.208;18.988;2023-01-29T15:29:58;33.37;;;16.67;;
20348;SDS011;10332;50.208;18.988;2023-01-29T15:32:32;38.03;;;17.63;;
20348;SDS011;10332;50.208;18.988;2023-01-29T15:35:07;35.87;;;16.80;;
20348;SDS011;10332;50.208;18.988;2023-01-29T15:40:27;29.50;;;14.97;;
20348;SDS011;10332;50.208;18.988;2023-01-29T15:42:55;28.43;;;14.20;;
20348;SDS011;10332;50.208;18.988;2023-01-29T15:45:27;36.03;;;17.70;;
20348;SDS011;10332;50.208;18.988;2023-01-29T15:48:05;33.00;;;17.07;;
20348;SDS011;10332;50.208;18.988;2023-01-29T15:50:45;38.50;;;18.60;;
20348;SDS011;10332;50.208;18.988;2023-01-29T15:53:19;44.23;;;20.50;;
20348;SDS011;10332;50.208;18.988;2023-01-29T15:56:06;43.03;;;18.87;;
20348;SDS011;10332;50.208;18.988;2023-01-29T15:58:40;39.90;;;17.93;;
20348;SDS011;10332;50.208;18.988;2023-01-29T16:01:08;39.80;;;18.70;;
20348;SDS011;10332;50.208;18.988;2023-01-29T16:03:38;38.27;;;17.47;;
20348;SDS011;10332;50.208;18.988;2023-01-29T16:06:06;35.87;;;17.77;;
20348;SDS011;10332;50.208;18.988;2023-01-29T16:08:34;32.57;;;16.60;;
20348;SDS011;10332;50.208;18.988;2023-01-29T16:11:05;34.63;;;17.87;;
20348;SDS011;10332;50.208;18.988;2023-01-29T16:13:34;36.53;;;16.60;;
20348;SDS011;10332;50.208;18.988;2023-01-29T16:18:42;38.43;;;16.37;;
20348;SDS011;10332;50.208;18.988;2023-01-29T16:21:35;41.87;;;18.50;;
20348;SDS011;10332;50.208;18.988;2023-01-29T16:24:08;37.40;;;17.47;;
20348;SDS011;10332;50.208;18.988;2023-01-29T16:26:42;38.20;;;17.53;;
20348;SDS011;10332;50.208;18.988;2023-01-29T16:29:20;40.80;;;18.27;;
20348;SDS011;10332;50.208;18.988;2023-01-29T16:31:55;40.43;;;18.73;;
20348;SDS011;10332;50.208;18.988;2023-01-29T16:34:39;42.13;;;17.77;;
20348;SDS011;10332;50.208;18.988;2023-01-29T16:39:53;38.43;;;17.97;;
20348;SDS011;10332;50.208;18.988;2023-01-29T16:42:25;35.50;;;18.07;;
20348;SDS011;10332;50.208;18.988;2023-01-29T16:45:02;37.37;;;18.47;;
20348;SDS011;10332;50.208;18.988;2023-01-29T16:48:51;37.50;;;17.73;;
20348;SDS011;10332;50.208;18.988;2023-01-29T16:51:11;36.97;;;18.27;;
20348;SDS011;10332;50.208;18.988;2023-01-29T16:56:32;36.70;;;17.50;;
20348;SDS011;10332;50.208;18.988;2023-01-29T16:59:03;36.90;;;17.33;;
20348;SDS011;10332;50.208;18.988;2023-01-29T17:01:33;40.80;;;18.67;;
20348;SDS011;10332;50.208;18.988;2023-01-29T17:04:07;41.90;;;19.03;;
20348;SDS011;10332;50.208;18.988;2023-01-29T17:06:40;36.97;;;18.07;;
20348;SDS011;10332;50.208;18.988;2023-01-29T17:09:18;34.83;;;16.23;;
20348;SDS011;10332;50.208;18.988;2023-01-29T17:11:58;36.00;;;17.30;;
20348;SDS011;10332;50.208;18.988;2023-01-29T17:14:33;39.37;;;18.97;;
20348;SDS011;10332;50.208;18.988;2023-01-29T17:17:05;39.10;;;19.30;;
20348;SDS011;10332;50.208;18.988;2023-01-29T17:19:44;41.73;;;20.53;;
20348;SDS011;10332;50.208;18.988;2023-01-29T17:22:12;37.80;;;19.40;;
20348;SDS011;10332;50.208;18.988;2023-01-29T17:24:41;39.47;;;18.03;;
20348;SDS011;10332;50.208;18.988;2023-01-29T17:27:19;37.00;;;18.97;;
20348;SDS011;10332;50.208;18.988;2023-01-29T17:29:50;38.23;;;18.60;;
20348;SDS011;10332;50.208;18.988;2023-01-29T17:32:20;42.93;;;19.83;;
20348;SDS011;10332;50.208;18.988;2023-01-29T17:34:50;41.00;;;20.33;;
20348;SDS011;10332;50.208;18.988;2023-01-29T17:37:19;48.93;;;20.60;;